Data for 12/12/2016

Time Sea-Level Adjusted Pressure Absolute Pressure Temperature Relative Humidity Dew Point   
(mb) (inHg) (mb) (inHg) (C) (F) (%) (C) (F)
00:05 1010 29.83 839 24.78 -1.7 28.9 49 -11.2 11.8
00:10 1010 29.83 839 24.78 -1.7 28.9 51 -10.7 12.8
00:15 1010 29.83 839 24.78 -1.8 28.7 51 -10.7 12.7
00:20 1010 29.83 839 24.78 -1.9 28.6 52 -10.5 13.2
00:25 1010 29.83 839 24.78 -2 28.3 55 -10 14.1
00:30 1010 29.83 839 24.78 -2.2 28.1 55 -10 14
00:35 1010 29.83 839 24.78 -2.1 28.1 56 -9.8 14.4
00:40 1010 29.83 839 24.78 -2.2 28.1 57 -9.7 14.6
00:45 1010 29.83 839 24.78 -2.3 27.9 57 -9.6 14.6
00:50 1010 29.83 839 24.78 -2.3 27.8 55 -10.1 13.8
00:55 1010 29.83 839 24.78 -2.3 27.9 56 -9.8 14.3
01:00 1010 29.83 839 24.78 -2.3 27.9 56 -9.9 14.1
01:05 1010 29.83 839 24.78 -2.3 27.9 58 -9.5 14.8
01:10 1010 29.83 839 24.78 -2.3 27.9 58 -9.5 15
01:15 1010 29.83 839 24.78 -2.3 27.9 59 -9.3 15.3
01:20 1010 29.83 839 24.78 -2.3 27.8 58 -9.5 15
01:25 1010 29.83 839 24.78 -2.3 27.8 58 -9.6 14.7
01:30 1010 29.83 839 24.78 -2.3 27.9 57 -9.6 14.7
01:35 1010 29.83 839 24.78 -2.3 27.9 58 -9.5 14.8
01:40 1010 29.83 839 24.78 -2.3 27.8 57 -9.8 14.3
01:45 1010 29.83 839 24.78 -2.3 27.9 56 -9.8 14.3
01:50 1010 29.83 839 24.78 -2.3 27.8 58 -9.6 14.8
01:55 1010 29.83 840 24.81 -2.4 27.6 59 -9.3 15.2
02:00 1010 29.83 840 24.81 -2.5 27.4 58 -9.6 14.7
02:05 1010 29.83 840 24.81 -2.5 27.5 59 -9.5 14.8
02:10 1010 29.83 840 24.81 -2.5 27.4 59 -9.4 15.1
02:15 1010 29.83 840 24.81 -2.6 27.4 59 -9.6 14.8
02:20 1011 29.85 840 24.81 -2.6 27.4 59 -9.5 14.8
02:25 1011 29.85 840 24.81 -2.6 27.3 59 -9.6 14.7
02:30 1011 29.85 840 24.81 -2.7 27.2 57 -10 14
02:35 1011 29.85 840 24.81 -2.5 27.5 56 -10.2 13.7
02:40 1011 29.85 840 24.81 -2.4 27.6 56 -10.1 13.7
02:45 1011 29.85 840 24.81 -2.5 27.6 55 -10.2 13.6
02:50 1011 29.85 840 24.81 -2.5 27.5 55 -10.3 13.4
02:55 1011 29.85 840 24.81 -2.5 27.4 56 -10.2 13.7
03:00 1011 29.85 840 24.81 -2.6 27.3 55 -10.4 13.4
03:05 1011 29.85 840 24.81 -2.6 27.3 55 -10.4 13.3
03:10 1011 29.85 840 24.81 -2.6 27.2 55 -10.4 13.3
03:15 1011 29.85 840 24.81 -2.7 27.1 56 -10.4 13.4
03:20 1011 29.85 840 24.81 -2.8 26.9 57 -10.2 13.6
03:25 1011 29.85 840 24.81 -2.9 26.9 57 -10.3 13.4
03:30 1011 29.85 840 24.81 -2.9 26.8 57 -10.2 13.7
03:35 1011 29.85 840 24.81 -3 26.6 58 -10.2 13.6
03:40 1011 29.85 840 24.81 -3 26.6 58 -10.1 13.8
03:45 1011 29.85 840 24.81 -3 26.5 58 -10.2 13.7
03:50 1011 29.85 840 24.81 -3.1 26.5 58 -10.2 13.6
03:55 1011 29.85 840 24.81 -3.1 26.3 58 -10.3 13.4
04:00 1011 29.85 840 24.81 -3.3 26.1 58 -10.5 13.1
04:05 1011 29.85 840 24.81 -3.3 26 58 -10.5 13
04:10 1011 29.85 840 24.81 -3.4 25.9 57 -10.8 12.6
04:15 1011 29.85 840 24.81 -3.4 26 57 -10.7 12.8
04:20 1011 29.85 840 24.81 -3.5 25.7 57 -10.8 12.6
04:25 1011 29.85 840 24.81 -3.6 25.5 57 -10.9 12.4
04:30 1011 29.85 841 24.83 -3.8 25.1 58 -10.9 12.3
04:35 1011 29.85 841 24.83 -3.9 24.9 59 -10.8 12.6
04:40 1011 29.85 841 24.83 -4.3 24.2 63 -10.4 13.3
04:45 1011 29.85 841 24.83 -4.6 23.7 64 -10.4 13.4
04:50 1011 29.85 841 24.83 -4.5 24 57 -11.8 10.8
04:55 1011 29.85 841 24.83 -3.8 25.1 57 -11.2 11.8
05:00 1011 29.85 841 24.83 -3.7 25.3 55 -11.6 11.1
05:05 1011 29.85 841 24.83 -3.7 25.4 54 -11.7 11
05:10 1011 29.85 841 24.83 -3.7 25.4 54 -11.8 10.8
05:15 1011 29.85 841 24.83 -3.8 25.1 53 -12 10.4
05:20 1011 29.85 841 24.83 -3.9 24.9 54 -12 10.5
05:25 1011 29.85 841 24.83 -4 24.7 54 -12.1 10.2
05:30 1011 29.85 841 24.83 -4.1 24.6 54 -12.2 10.1
05:35 1011 29.85 841 24.83 -4.2 24.5 54 -12.1 10.1
05:40 1011 29.85 841 24.83 -4.2 24.4 54 -12.3 9.9
05:45 1011 29.85 841 24.83 -4.2 24.4 55 -11.9 10.5
05:50 1012 29.88 841 24.83 -4.3 24.2 58 -11.5 11.3
05:55 1012 29.88 841 24.83 -4.6 23.8 59 -11.4 11.5
06:00 1012 29.88 841 24.83 -4.7 23.5 60 -11.4 11.4
06:05 1012 29.88 841 24.83 -4.7 23.5 57 -11.9 10.6
06:10 1012 29.88 841 24.83 -4.5 23.9 56 -12.1 10.2
06:15 1012 29.88 841 24.83 -4.4 24.1 52 -12.9 8.9
06:20 1012 29.88 841 24.83 -4.3 24.2 54 -12.4 9.7
06:25 1012 29.88 841 24.83 -4.3 24.2 51 -13.1 8.5
06:30 1012 29.88 841 24.83 -4.3 24.2 50 -13.3 8.1
06:35 1012 29.88 841 24.83 -4.2 24.4 50 -13.2 8.3
06:40 1012 29.88 841 24.83 -4.3 24.3 51 -13.1 8.5
06:45 1012 29.88 841 24.83 -4.5 23.8 51 -13.1 8.4
06:50 1012 29.88 841 24.83 -4.6 23.7 52 -13.2 8.3
06:55 1012 29.88 841 24.83 -4.6 23.7 51 -13.3 8.1
07:00 1012 29.88 841 24.83 -4.6 23.7 50 -13.6 7.5
07:05 1012 29.88 841 24.83 -4.4 24.1 49 -13.7 7.4
07:10 1012 29.88 841 24.83 -4.2 24.4 48 -13.6 7.5
07:15 1012 29.88 841 24.83 -4.1 24.6 47 -14 6.9
07:20 1012 29.88 841 24.83 -4.1 24.7 47 -13.8 7.1
07:25 1012 29.88 841 24.83 -4.2 24.4 47 -14.1 6.7
07:30 1012 29.88 841 24.83 -4.2 24.4 46 -14.2 6.5
07:35 1012 29.88 841 24.83 -4.2 24.4 46 -14.3 6.3
07:40 1012 29.88 841 24.83 -4.2 24.4 46 -14.3 6.2
07:45 1012 29.88 841 24.83 -4.3 24.2 46 -14.4 6.1
07:50 1012 29.88 841 24.83 -4.4 24.2 46 -14.3 6.2
07:55 1012 29.88 841 24.83 -4.4 24.1 46 -14.4 6.1
08:00 1012 29.88 842 24.86 -4.4 24.1 46 -14.4 6
08:05 1012 29.88 842 24.86 -4.3 24.2 46 -14.3 6.2
08:10 1012 29.88 842 24.86 -4.4 24.2 46 -14.2 6.4
08:15 1012 29.88 842 24.86 -4.4 24 48 -13.9 7
08:20 1012 29.88 842 24.86 -4.7 23.6 48 -14 6.8
08:25 1012 29.88 842 24.86 -4.9 23.2 48 -14.3 6.3
08:30 1012 29.88 842 24.86 -4.8 23.4 48 -14.1 6.6
08:35 1012 29.88 842 24.86 -4.7 23.5 47 -14.4 6.1
08:40 1012 29.88 842 24.86 -4.5 23.9 46 -14.6 5.8
08:45 1013 29.91 842 24.86 -4.5 23.8 46 -14.4 6
08:50 1013 29.91 842 24.86 -4.5 23.8 46 -14.5 6
08:55 1013 29.91 842 24.86 -4.6 23.8 46 -14.4 6
09:00 1013 29.91 842 24.86 -4.6 23.7 47 -14.2 6.5
09:05 1013 29.91 842 24.86 -4.7 23.5 46 -14.7 5.6
09:10 1013 29.91 842 24.86 -4.8 23.4 46 -14.6 5.6
09:15 1013 29.91 842 24.86 -4.8 23.4 46 -14.6 5.8
09:20 1013 29.91 842 24.86 -4.8 23.4 47 -14.5 5.9
09:25 1013 29.91 842 24.86 -4.7 23.5 48 -14.2 6.4
09:30 1013 29.91 842 24.86 -4.8 23.4 48 -14.3 6.3
09:35 1013 29.91 842 24.86 -4.9 23.2 48 -14.4 6.1
09:40 1013 29.91 842 24.86 -4.8 23.3 46 -14.7 5.6
09:45 1013 29.91 842 24.86 -4.4 24.1 44 -14.9 5.1
09:50 1013 29.91 842 24.86 -4.3 24.2 44 -14.8 5.4
09:55 1013 29.91 843 24.89 -4.4 24.2 45 -14.7 5.5
10:00 1013 29.91 843 24.89 -4.4 24.1 46 -14.3 6.3
10:05 1013 29.91 843 24.89 -4.3 24.2 45 -14.5 6
10:10 1013 29.91 843 24.89 -3.8 25.1 43 -14.6 5.7
10:15 1013 29.91 843 24.89 -3.4 25.9 42 -14.6 5.7
10:20 1013 29.91 843 24.89 -3.3 26.1 43 -14.3 6.3
10:25 1013 29.91 843 24.89 -3.3 26 43 -14.1 6.6
10:30 1014 29.94 843 24.89 -3.6 25.6 44 -14 6.8
10:35 1014 29.94 843 24.89 -3.6 25.5 45 -13.9 7
10:40 1014 29.94 843 24.89 -3.3 26 43 -14.2 6.4
10:45 1014 29.94 843 24.89 -3.1 26.5 44 -13.8 7.2
10:50 1014 29.94 843 24.89 -2.9 26.8 43 -13.9 6.9
10:55 1014 29.94 843 24.89 -2.8 26.9 43 -13.9 7
11:00 1014 29.94 843 24.89 -2.4 27.6 40 -14.2 6.5
11:05 1014 29.94 843 24.89 -1.7 28.9 38 -14.2 6.5
11:10 1014 29.94 843 24.89 -1.3 29.6 38 -13.8 7.2
11:15 1014 29.94 843 24.89 -1 30.2 37 -13.9 7.1
11:20 1014 29.94 843 24.89 -1.4 29.4 40 -13.5 7.7
11:25 1013 29.91 843 24.89 -1.7 29 39 -13.8 7.2
11:30 1013 29.91 843 24.89 -1.7 28.9 40 -13.7 7.3
11:35 1013 29.91 843 24.89 -1.8 28.7 41 -13.4 7.8
11:40 1013 29.91 843 24.89 -2.4 27.7 43 -13.3 8
11:45 1013 29.91 843 24.89 -2.9 26.8 43 -13.9 7
11:50 1013 29.91 842 24.86 -3 26.5 44 -13.7 7.3
11:55 1013 29.91 842 24.86 -2.8 27 44 -13.6 7.6
12:00 1013 29.91 842 24.86 -2.9 26.8 43 -13.7 7.3
12:05 1013 29.91 842 24.86 -2.8 26.9 44 -13.4 7.9
12:10 1013 29.91 842 24.86 -2.9 26.8 44 -13.5 7.7
12:15 1013 29.91 842 24.86 -2.9 26.8 45 -13.2 8.2
12:20 1013 29.91 842 24.86 -3.3 26.1 50 -12.4 9.7
12:25 1013 29.91 843 24.89 -4 24.7 52 -12.6 9.4
12:30 1013 29.91 843 24.89 -4.1 24.5 51 -12.8 8.9
12:35 1013 29.91 843 24.89 -4.3 24.3 51 -13.1 8.5
12:40 1013 29.91 843 24.89 -4.4 24 52 -12.8 8.9
12:45 1013 29.91 843 24.89 -4.9 23.2 53 -13 8.7
12:50 1013 29.91 843 24.89 -5.1 22.9 54 -13.1 8.4
12:55 1013 29.91 843 24.89 -5.2 22.7 54 -13.2 8.2
13:00 1013 29.91 843 24.89 -5.6 21.9 55 -13.3 8.1
13:05 1013 29.91 842 24.86 -5.6 21.8 54 -13.5 7.8
13:10 1013 29.91 843 24.89 -5.4 22.2 53 -13.5 7.7
13:15 1013 29.91 842 24.86 -5.3 22.5 53 -13.5 7.7
13:20 1013 29.91 842 24.86 -5.3 22.4 53 -13.5 7.6
13:25 1013 29.91 843 24.89 -5.9 21.3 55 -13.5 7.7
13:30 1013 29.91 843 24.89 -6 21.1 56 -13.4 7.9
13:35 1013 29.91 843 24.89 -6.5 20.2 59 -13.3 8.1
13:40 1013 29.91 843 24.89 -6.2 20.9 56 -13.6 7.5
13:45 1013 29.91 843 24.89 -5.7 21.8 56 -13.2 8.3
13:50 1013 29.91 843 24.89 -5.9 21.3 56 -13.3 8.1
13:55 1013 29.91 843 24.89 -6.1 21.1 57 -13.2 8.2
14:00 1013 29.91 843 24.89 -6.6 20.1 59 -13.3 8.1
14:05 1014 29.94 843 24.89 -6.3 20.6 57 -13.4 7.8
14:10 1014 29.94 843 24.89 -6.3 20.7 58 -13.4 7.9
14:15 1013 29.91 843 24.89 -6.4 20.4 59 -13.3 8.1
14:20 1013 29.91 843 24.89 -6.3 20.6 57 -13.5 7.7
14:25 1013 29.91 843 24.89 -6.4 20.4 57 -13.5 7.6
14:30 1013 29.91 843 24.89 -6.3 20.6 57 -13.6 7.6
14:35 1013 29.91 843 24.89 -6.3 20.6 57 -13.4 7.8
14:40 1014 29.94 843 24.89 -6.4 20.5 57 -13.5 7.7
14:45 1014 29.94 843 24.89 -6.6 20.1 58 -13.5 7.7
14:50 1014 29.94 843 24.89 -7 19.4 60 -13.6 7.5
14:55 1014 29.94 843 24.89 -7.2 19 60 -13.8 7.2
15:00 1014 29.94 843 24.89 -7.4 18.6 60 -13.9 7
15:05 1014 29.94 843 24.89 -7.4 18.7 60 -13.8 7.1
15:10 1014 29.94 843 24.89 -7.3 18.8 60 -13.9 7
15:15 1014 29.94 843 24.89 -7.4 18.6 60 -14 6.9
15:20 1014 29.94 843 24.89 -7.6 18.3 60 -14.1 6.6
15:25 1014 29.94 843 24.89 -7.9 17.8 61 -14.1 6.6
15:30 1014 29.94 843 24.89 -8.2 17.3 62 -14.3 6.3
15:35 1014 29.94 843 24.89 -8.3 17.1 62 -14.3 6.3
15:40 1014 29.94 843 24.89 -8.3 17.1 62 -14.3 6.2
15:45 1014 29.94 843 24.89 -8.4 16.9 63 -14.3 6.2
15:50 1014 29.94 843 24.89 -8.7 16.4 63 -14.4 6
15:55 1014 29.94 843 24.89 -8.9 15.9 65 -14.3 6.2
16:00 1014 29.94 843 24.89 -9.1 15.6 66 -14.4 6.1
16:05 1014 29.94 843 24.89 -9.3 15.3 67 -14.4 6.1
16:10 1014 29.94 843 24.89 -9.5 15 67 -14.5 5.9
16:15 1014 29.94 844 24.92 -9.7 14.6 69 -14.4 6.1
16:20 1014 29.94 844 24.92 -9.7 14.6 69 -14.4 6
16:25 1014 29.94 844 24.92 -9.9 14.2 70 -14.3 6.2
16:30 1014 29.94 844 24.92 -10.1 13.9 70 -14.5 5.8
16:35 1014 29.94 844 24.92 -10.4 13.2 72 -14.6 5.8
16:40 1015 29.97 844 24.92 -10.4 13.3 72 -14.6 5.8
16:45 1015 29.97 844 24.92 -10.2 13.7 71 -14.5 6
16:50 1015 29.97 844 24.92 -10.1 13.9 71 -14.4 6.1
16:55 1015 29.97 844 24.92 -10.1 13.9 71 -14.4 6
17:00 1015 29.97 844 24.92 -10.2 13.6 72 -14.4 6.1
17:05 1015 29.97 844 24.92 -10.3 13.5 72 -14.5 5.9
17:10 1015 29.97 844 24.92 -10.4 13.3 72 -14.5 5.9
17:15 1015 29.97 844 24.92 -10.5 13.1 72 -14.6 5.7
17:20 1015 29.97 845 24.95 -10.6 13 72 -14.7 5.6
17:25 1016 30 845 24.95 -10.7 12.7 72 -14.7 5.5
17:30 1015 29.97 845 24.95 -10.9 12.4 73 -14.8 5.3
17:35 1015 29.97 845 24.95 -11.1 12 73 -15 4.9
17:40 1015 29.97 845 24.95 -11.7 10.9 75 -15.2 4.6
17:45 1015 29.97 845 24.95 -11.7 10.9 75 -15.4 4.3
17:50 1015 29.97 845 24.95 -11.9 10.5 76 -15.4 4.3
17:55 1015 29.97 845 24.95 -11.9 10.5 77 -15.2 4.6
18:00 1015 29.97 845 24.95 -11.6 11.1 75 -15.2 4.6
18:05 1015 29.97 845 24.95 -11.7 11 75 -15.3 4.5
18:10 1015 29.97 845 24.95 -12 10.4 77 -15.3 4.5
18:15 1015 29.97 845 24.95 -12 10.4 77 -15.2 4.7
18:20 1016 30 845 24.95 -11.8 10.8 77 -15.1 4.9
18:25 1016 30 845 24.95 -11.6 11.2 76 -15 5
18:30 1015 29.97 845 24.95 -11.4 11.4 75 -15 5
18:35 1015 29.97 845 24.95 -11.4 11.6 75 -15 5.1
18:40 1016 30 845 24.95 -11.3 11.6 74 -15 5
18:45 1016 30 845 24.95 -11.8 10.8 77 -15 4.9
18:50 1016 30 845 24.95 -12 10.4 78 -15.1 4.8
18:55 1016 30 845 24.95 -12 10.3 78 -15.2 4.7
19:00 1016 30 845 24.95 -11.9 10.6 78 -15.1 4.9
19:05 1016 30 845 24.95 -11.9 10.6 78 -15.1 4.9
19:10 1016 30 845 24.95 -12.1 10.3 79 -15.1 4.9
19:15 1016 30 845 24.95 -12 10.5 78 -15 5
19:20 1016 30 845 24.95 -11.8 10.8 77 -15 5
19:25 1016 30 846 24.98 -11.8 10.9 76 -15.2 4.7
19:30 1016 30 846 24.98 -11.8 10.7 76 -15.3 4.4
19:35 1016 30 846 24.98 -11.9 10.5 75 -15.5 4.2
19:40 1016 30 846 24.98 -12 10.4 75 -15.5 4.1
19:45 1017 30.03 846 24.98 -12.2 10.1 76 -15.5 4.1
19:50 1017 30.03 846 24.98 -12.5 9.4 79 -15.5 4.2
19:55 1017 30.03 846 24.98 -12.9 8.8 80 -15.6 3.9
20:00 1017 30.03 846 24.98 -13 8.5 81 -15.6 3.8
20:05 1017 30.03 846 24.98 -12.9 8.9 79 -15.8 3.6
20:10 1017 30.03 846 24.98 -13 8.7 79 -15.9 3.3
20:15 1017 30.03 846 24.98 -13 8.7 79 -16 3.3
20:20 1017 30.03 846 24.98 -13 8.5 79 -16 3.3
20:25 1017 30.03 846 24.98 -13.4 7.9 80 -16.1 3
20:30 1017 30.03 846 24.98 -13.9 6.9 83 -16.2 2.8
20:35 1017 30.03 846 24.98 -14.1 6.6 84 -16.3 2.7
20:40 1017 30.03 846 24.98 -14.3 6.3 85 -16.3 2.6
20:45 1017 30.03 846 24.98 -14.2 6.5 85 -16.2 2.8
20:50 1017 30.03 846 24.98 -14 6.9 83 -16.2 2.8
20:55 1017 30.03 846 24.98 -13.9 7.1 83 -16.2 2.9
21:00 1017 30.03 846 24.98 -13.9 7 83 -16.2 2.9
21:05 1017 30.03 846 24.98 -13.9 7 82 -16.3 2.7
21:10 1017 30.03 846 24.98 -14.1 6.6 83 -16.4 2.4
21:15 1017 30.03 846 24.98 -14.2 6.4 83 -16.5 2.3
21:20 1017 30.03 846 24.98 -14.4 6.1 85 -16.4 2.5
21:25 1017 30.03 846 24.98 -14.2 6.4 84 -16.4 2.5
21:30 1017 30.03 846 24.98 -14.2 6.5 83 -16.5 2.3
21:35 1017 30.03 846 24.98 -14.4 6.2 82 -16.8 1.8
21:40 1017 30.03 846 24.98 -14.7 5.6 84 -16.9 1.6
21:45 1017 30.03 846 24.98 -14.6 5.8 84 -16.7 1.9
21:50 1017 30.03 846 24.98 -14.2 6.4 83 -16.5 2.2
21:55 1017 30.03 846 24.98 -14 6.7 83 -16.4 2.5
22:00 1017 30.03 847 25.01 -13.9 7 82 -16.3 2.6
22:05 1017 30.03 847 25.01 -13.8 7.1 82 -16.3 2.6
22:10 1017 30.03 847 25.01 -13.9 6.9 80 -16.7 1.9
22:15 1017 30.03 847 25.01 -14.4 6.1 81 -16.9 1.5
22:20 1017 30.03 846 24.98 -14.5 5.8 82 -17 1.4
22:25 1017 30.03 846 24.98 -14.6 5.8 81 -17.2 1.1
22:30 1017 30.03 846 24.98 -14.9 5.3 82 -17.3 0.8
22:35 1017 30.03 847 25.01 -15.2 4.6 81 -17.8 -0
22:40 1017 30.03 847 25.01 -15.5 4.1 83 -17.7 0.1
22:45 1017 30.03 847 25.01 -15.2 4.6 84 -17.3 0.9
22:50 1018 30.06 847 25.01 -14.9 5.1 84 -17.1 1.1
22:55 1018 30.06 847 25.01 -14.7 5.5 83 -17 1.4
23:00 1017 30.03 847 25.01 -14.6 5.7 84 -16.8 1.8
23:05 1018 30.06 847 25.01 -14.4 6.1 83 -16.7 1.9
23:10 1018 30.06 847 25.01 -14.2 6.5 82 -16.6 2.1
23:15 1018 30.06 847 25.01 -14.1 6.6 82 -16.6 2.2
23:20 1018 30.06 847 25.01 -14.1 6.7 82 -16.5 2.3
23:25 1018 30.06 847 25.01 -14.1 6.7 82 -16.6 2.2
23:30 1018 30.06 847 25.01 -14.2 6.4 82 -16.7 1.9
23:35 1017 30.03 847 25.01 -14.3 6.2 82 -16.8 1.7
23:40 1018 30.06 847 25.01 -14.4 6 83 -16.8 1.8
23:45 1018 30.06 847 25.01 -14.3 6.3 83 -16.6 2.1
23:50 1018 30.06 847 25.01 -14.1 6.6 83 -16.5 2.3
23:55 1018 30.06 847 25.01 -13.9 6.9 82 -16.4 2.5
24:00 1018 30.06 847 25.01 -13.8 7.1 82 -16.3 2.6